Nimitz, West Virginia
Current Conditions -  °F | °C
As of 4:51 AM on Sunday 25 Jan 2015 (Local Time) from KBKW Reporting Station
Overcast Overcast  
Wind Chill: 25°   Ceiling: 2500
Heat Index: 31°   Visibility: 7mi
Dew Point: 28°   Wind: 6mph
Humidity: 89%   Direction: 230°SW
Pressure: 29.78"   Gusts: NA
Location:  37.65°N, 80.96°W
Report Text: KBKW 250951Z AUTO 23005KT 7SM OVC025 M01/M02 A2978 RMK AO2 SLP112 T10061022
Loading
Personal Weather Stations






























Interactive Weather Map New forecast layout! Learn more

10-Day Weather Forecast

Advertisements
Track Severe Weather on mobile